Terminal Aerodrome Forecast
Issued by NWS Grand Forks, ND

Home | Current Version | Previous Version | Graphics & Text | Print | Product List | Glossary On
Versions: 1 2 3 4 5 6 7 8 9 10 11 12 13
000
FTUS43 KFGF 301135
TAFFAR
TAF
KFAR 301135Z 3012/0112 02005KT 3SM BR BKN200
     FM301400 02005KT P6SM SCT080 BKN200
     FM010200 05006KT P6SM BKN100=

USA.gov is the U.S. government's official web portal to all federal, state and local government web resources and services.